Lebork, Poland

4:00 PM CEST on July 29, 2016 (GMT +0200)
Lebork | | Change Station

Elev 46 ft 54.54 °N, 17.72 °E | Updated 31 seconds ago

Partly Cloudy
Partly Cloudy
74.8 °F
Feels Like 76 °F
N
0.0
Wind Variable Wind from North
Gusts 0.0 mph

Today
High -- | Low -- °F
--% Chance of Precip.
Yesterday
High -- | Low -- °F
Precip. -- in
Pressure 29.83 in
Visibility 6.2 miles
Clouds Few 1200 ft
Heat Index 76 °F
Dew Point 67 °F
Humidity 76%
Rainfall 0.45 in
Snow Depth Not available.
4:55 AM 8:54 PM
Waning Crescent, 22% visible
METAR EPGD 291330Z 32005KT 280V010 9999 FEW012 20/16 Q1010
Pressure 29.83 in
Visibility 6.2 miles
Clouds Few 1200 ft
Heat Index 76 °F
Dew Point 67 °F
Humidity 76%
Rainfall 0.45 in
Snow Depth Not available.
4:55 AM 8:54 PM
Waning Crescent, 22% visible
METAR EPGD 291330Z 32005KT 280V010 9999 FEW012 20/16 Q1010

10-Day Weather Forecast

×

Almanac

Astronomy

Jul. 29, 2016 Rise Set
Actual Time
Civil Twilight
Nautical Twilight
Astronomical Twilight
Moon
Length of Visible Light
Length of Day
Tomorrow will be .
, % of the Moon is Illuminated

Today's Extremes

Country Highs Country Lows

Community

WunderPhotos

Upload Photos

1,928,340 photos uploaded!

WunderBlog® & News

Nearby

Air Quality

  Air Quality AQ Index Pollutant
Not available.

Snow Depth

Station Depth Elevation

Earthquake Activity

City Distance Mag. Time & Date
Minimum magnitude displayed is 2.5.

Coastal Water Temperatures

Place Temperature

Stations

Nearby Weather Stations

Station Location Temp. Windchill Dew Point Humidity Wind Precip. Elev Updated Type